Wednesday, November 14, 2018, 6:46 AM GMT
Back to Local

CYQM, Moncton, N. B.

Location: , , Canada Lat: 46.117
Local Time: 6:46 AM GMT ( 6:46 GMT) Lon: -64.683
Time Zone: GMT Elev: 232 ft

Show me the last for .
Show Decoded

2018-11-14 06:00 METAR CYQM 140600Z 26016G26KT 15SM FEW003 OVC006 01/00 A2937 RMK SF2SF6 SLP952 =
2018-11-14 05:40 METAR CYQM 140540Z 27020G30KT 10SM -DZ SCT003 OVC005 01/00 A2937 RMK SF3SF5
                 SLP950 =
2018-11-14 05:26 METAR CYQM 140526Z 26017G27KT 6SM -DZ BR OVC003 01/00 A2937 RMK SF8 SLP949 =
2018-11-14 05:11 METAR CYQM 140511Z 25017KT 10SM OVC003 01/00 A2936 RMK SF8 PRESRR SLP948 =
2018-11-14 05:00 METAR CYQM 140500Z 25013KT 15SM OVC002 01/01 A2935 RMK SF8 SLP943 =
2018-11-14 04:56 METAR CYQM 140456Z 25013KT 12SM OVC002 01/01 A2935 RMK SF8 PRESRR SLP943 =
2018-11-14 04:41 METAR CYQM 140441Z 24010KT 1 1/4SM -DZ BR SCT008 01/01 A2933 RMK SF3 SLP938 =
2018-11-14 04:19 METAR CYQM 140419Z 27008KT 7SM -DZ OVC003 01/01 A2935 RMK SF8 SLP942 =
2018-11-14 04:00 METAR CYQM 140400Z 28009KT 10SM OVC003 01/01 A2935 RMK SF8 SLP942 =
2018-11-14 03:00 METAR CYQM 140300Z 32005KT 300V040 7SM -DZ OVC003 01/01 A2939 RMK SF8 SLP958 =
2018-11-14 02:42 METAR CYQM 140242Z 08011KT 7SM -DZ BKN004 OVC008 01/01 A2939 RMK SF6SF2 PRESFR
                 SLP957 =
2018-11-14 02:00 METAR CYQM 140200Z 09011G18KT 6SM -RADZ BR BKN004 OVC006 01/01 A2943 RMK SF7SF1
                 PRESFR SLP972 =
2018-11-14 01:00 METAR CYQM 140100Z 09012G19KT 6SM -RADZ BR FEW004 BKN006 OVC010 01/00 A2955 RMK
                 ST2SF5SF1 PRESFR SLP011 =
2018-11-14 00:46 METAR CYQM 140046Z 09014G20KT 5SM -RADZ BR SCT004 BKN005 OVC009 01/00 A2957 RMK
                 SF3SF4SF1 PRESFR SLP017 =
2018-11-14 00:00 METAR CYQM 140000Z 09013G18KT 7SM -RA FEW004 BKN006 OVC010 00/00 A2964 RMK
                 SF2SF5SF1 PRESFR SLP041 =
2018-11-13 23:00 METAR CYQM 132300Z 10014KT 7SM -RA FEW004 OVC005 00/M00 A2976 RMK SF2SF6 PRESFR
                 SLP083 =
2018-11-13 22:12 METAR CYQM 132212Z 11012G18KT 8SM -RA SCT004 OVC005 00/M00 A2984 RMK ST3SF5
                 PRESFR SLP111 =
2018-11-13 22:00 METAR CYQM 132200Z 10011G17KT 10SM -FZRA OVC005 M00/M01 A2985 RMK SF8 PRESFR
                 SLP114 =
2018-11-13 21:36 METAR CYQM 132136Z 11014G22KT 8SM -FZRA OVC006 M00/M01 A2989 RMK SF8 PRESFR
                 SLP126 =
2018-11-13 21:25 METAR CYQM 132125Z 10012G19KT 4SM -FZRA -SN BR BKN005 M00/M01 A2990 RMK SF7 VIS
                 LWR S PRESFR SLP132 =
2018-11-13 21:00 METAR CYQM 132100Z 09012G18KT 2SM -FZRA -SN BKN004 OVC043 M00/M01 A2993 RMK
                 SF7SC1 /S05/ PRESFR SLP140 =
2018-11-13 20:53 METAR CYQM 132053Z 09013G18KT 1 3/4SM -SN OVC004 M00/M01 A2994 RMK SF8 PRESFR
                 SLP143 =
2018-11-13 20:00 METAR CYQM 132000Z 11014KT 1/2SM R06/P6000FT/U R29/P6000FT/D SN OVC004 M00/M01
                 A3002 RMK SF8 /S03/ PRESFR SLP172 =
2018-11-13 19:25 METAR CYQM 131925Z 11012G19KT 5/8SM R06/P6000FT/D R29/P6000FT/D -SN OVC004
                 M00/M01 A3007 RMK SF8 PRESFR SLP189 =
2018-11-13 19:00 METAR CYQM 131900Z CCA 12010KT 1 1/4SM -SN BKN005 OVC022 00/M00 A3010 RMK SF7SC1
                 /S01/ PRESFR SLP200 =
2018-11-13 18:52 METAR CYQM 131852Z 12011KT 3/4SM R06/P6000FT/U R29/5500VP6000FT/U -SN BKN005
                 OVC022 M00/M00 A3011 RMK SF7SC1 PRESFR SLP201 =
2018-11-13 18:10 METAR CYQM 131810Z 14009KT 5/8SM R06/P6000FT/N R29/P6000FT/U -SN OVC005 00/M00
                 A3016 RMK SF8 PRESFR SLP218 =
2018-11-13 18:00 METAR CYQM 131800Z 14009KT 3/4SM R06/P6000FT/D R29/P6000FT/D -SN OVC004 00/M00
                 A3017 RMK SF8 /S01/ SLP222 =
2018-11-13 17:34 METAR CYQM 131734Z 14012KT 1SM R06/P6000FT/N R29/P6000FT/N -SN OVC004 00/M00
                 A3019 RMK SF8 SLP228 =
2018-11-13 17:00 METAR CYQM 131700Z 13008KT 1SM R06/P6000FT/N R29/P6000FT/N -SN FEW008 OVC021
                 01/M00 A3020 RMK SF2SC6 PRESFR SLP234 =
2018-11-13 16:49 METAR CYQM 131649Z 14006KT 1SM R06/P6000FT/N R29/P6000FT/N -SN FEW008 OVC021
                 01/M01 A3021 RMK SF2SC6 PRESFR SLP237 =
2018-11-13 16:07 METAR CYQM 131607Z 15006KT 2 1/4SM -SN OVC023 01/M02 A3025 RMK SC8 SLP248 =
2018-11-13 16:00 METAR CYQM 131600Z 16009KT 3SM -SN BKN020 OVC039 01/M02 A3025 RMK SC6SC2 SLP249
                 =
2018-11-13 15:31 METAR CYQM 131531Z 17007KT 12SM -SN SCT040 OVC075 02/M04 A3027 RMK SC4AC4 SLP256
                 =
2018-11-13 15:00 METAR CYQM 131500Z 16006KT 15SM FEW057 OVC074 01/M05 A3029 RMK SC1AC7 SLP261 =
2018-11-13 14:00 METAR CYQM 131400Z 16005KT 15SM OVC073 00/M06 A3031 RMK AC8 SLP268 =
2018-11-13 13:00 METAR CYQM 131300Z 15005KT 15SM OVC071 M02/M08 A3033 RMK AC8 SLP275 =
2018-11-13 12:00 METAR CYQM 131200Z 16005KT 15SM BKN110 OVC260 M03/M08 A3034 RMK AC6CI2 SLP281 =
2018-11-13 11:00 METAR CYQM 131100Z 20003KT 15SM BKN120 OVC240 M04/M09 A3034 RMK AC7CI1 SLP278 =
2018-11-13 10:00 METAR CYQM 131000Z 21004KT 15SM BKN130 M05/M09 A3035 RMK AS6 SLP282 =
2018-11-13 09:00 METAR CYQM 130900Z 24003KT 15SM BKN140 M05/M10 A3035 RMK AS6 SLP284 =
2018-11-13 08:00 METAR CYQM 130800Z 24004KT 15SM FEW080 SCT200 M06/M10 A3037 RMK AC1CI2 SLP288 =
2018-11-13 07:00 METAR CYQM 130700Z 22006KT 15SM SCT220 M05/M10 A3036 RMK CS3 SLP287 =

Support USWX by starting your Amazon purchase here.